createdAt,value
2022-09-23T00:00:02.337Z,100.00
2022-09-23T00:50:38.941Z,100.00
2022-09-23T00:53:07.033Z,100.00
2022-09-23T00:55:35.947Z,100.00
2022-09-23T00:58:04.625Z,100.00
2022-09-23T01:47:17.502Z,100.00
2022-09-23T01:49:46.771Z,100.00
2022-09-23T01:52:16.409Z,100.00
2022-09-23T01:54:45.565Z,100.00
2022-09-23T01:57:14.129Z,100.00
2022-09-23T01:59:42.813Z,100.00
2022-09-23T02:48:54.472Z,100.00
2022-09-23T02:51:23.874Z,100.00
2022-09-23T02:53:52.197Z,100.00
2022-09-23T02:56:21.133Z,100.00
2022-09-23T03:45:14.778Z,100.00
2022-09-23T03:47:44.174Z,100.00
2022-09-23T03:50:13.468Z,100.00
2022-09-23T03:52:41.305Z,100.00
2022-09-23T03:55:09.742Z,100.00
2022-09-23T03:57:37.579Z,100.00
2022-09-23T04:00:06.385Z,100.00
2022-09-23T04:32:00.569Z,100.00
2022-09-23T04:34:28.958Z,100.00
2022-09-23T04:36:56.916Z,100.00
2022-09-23T04:39:25.356Z,100.00
2022-09-23T04:41:53.564Z,100.00
2022-09-23T04:44:22.483Z,100.00
2022-09-23T04:46:50.424Z,100.00
2022-09-23T04:49:19.845Z,100.00
2022-09-23T04:51:48.286Z,100.00
2022-09-23T04:54:16.848Z,100.00
2022-09-23T04:56:45.285Z,100.00
2022-09-23T04:59:13.130Z,100.00
2022-09-23T05:01:41.838Z,100.00
2022-09-23T05:04:13.957Z,100.00
2022-09-23T05:06:45.424Z,100.00
2022-09-23T05:09:15.533Z,100.00
2022-09-23T05:11:43.639Z,100.00
2022-09-23T05:14:11.453Z,100.00
2022-09-23T05:16:39.481Z,100.00
2022-09-23T05:19:07.556Z,100.00
2022-09-23T05:21:35.343Z,100.00
2022-09-23T05:24:04.862Z,100.00
2022-09-23T05:26:32.938Z,100.00
2022-09-23T05:29:00.928Z,100.00
2022-09-23T05:31:29.573Z,100.00
2022-09-23T05:33:58.401Z,100.00
2022-09-23T05:36:26.350Z,100.00
2022-09-23T05:38:56.594Z,100.00
2022-09-23T05:41:25.869Z,100.00
2022-09-23T05:43:53.839Z,100.00
2022-09-23T05:46:22.565Z,100.00
2022-09-23T05:48:50.471Z,100.00
2022-09-23T05:51:18.675Z,100.00
2022-09-23T05:53:46.633Z,100.00
2022-09-23T05:56:14.478Z,100.00
2022-09-23T05:58:43.754Z,100.00
2022-09-23T06:01:12.567Z,100.00
2022-09-23T06:03:41.002Z,100.00
2022-09-23T06:06:08.960Z,100.00
2022-09-23T06:08:37.885Z,100.00
2022-09-23T06:11:07.790Z,100.00
2022-09-23T06:13:38.339Z,100.00
2022-09-23T06:16:08.144Z,100.00
2022-09-23T06:18:35.985Z,100.00
2022-09-23T06:21:03.810Z,100.00
2022-09-23T06:23:31.660Z,100.00
2022-09-23T06:26:02.615Z,100.00
2022-09-23T06:28:32.252Z,100.00
2022-09-23T06:31:00.257Z,100.00
2022-09-23T06:33:36.869Z,100.00
2022-09-23T06:36:05.969Z,100.00
2022-09-23T06:38:34.301Z,100.00
2022-09-23T06:41:03.338Z,100.00
2022-09-23T06:43:31.307Z,100.00
2022-09-23T06:45:59.503Z,100.00
2022-09-23T06:48:27.575Z,100.00
2022-09-23T06:50:59.617Z,100.00
2022-09-23T06:53:27.588Z,100.00
2022-09-23T06:55:59.032Z,100.00
2022-09-23T06:58:26.984Z,100.00
2022-09-23T07:00:55.188Z,100.00
2022-09-23T07:03:22.903Z,100.00
2022-09-23T07:05:50.867Z,100.00
2022-09-23T07:08:20.040Z,100.00
2022-09-23T07:10:51.827Z,100.00
2022-09-23T07:13:19.669Z,100.00
2022-09-23T07:15:50.940Z,100.00
2022-09-23T07:18:18.832Z,100.00
2022-09-23T07:20:46.823Z,100.00
2022-09-23T07:23:15.111Z,100.00
2022-09-23T07:25:44.292Z,100.00
2022-09-23T07:28:12.113Z,100.00
2022-09-23T07:30:44.941Z,100.00
2022-09-23T07:33:28.294Z,100.00
2022-09-23T07:35:59.289Z,100.00
2022-09-23T07:38:30.420Z,100.00
2022-09-23T07:41:03.959Z,100.00
2022-09-23T07:43:33.001Z,100.00
2022-09-23T07:46:02.344Z,100.00
2022-09-23T07:48:34.045Z,100.00
2022-09-23T07:51:02.538Z,100.00
2022-09-23T07:53:32.187Z,100.00
2022-09-23T07:56:00.249Z,100.00
2022-09-23T07:58:29.418Z,100.00
2022-09-23T08:00:58.581Z,100.00
2022-09-23T08:03:26.649Z,100.00
2022-09-23T08:05:54.619Z,100.00
2022-09-23T08:08:22.457Z,100.00
2022-09-23T08:10:50.307Z,100.00
2022-09-23T08:13:18.137Z,100.00
2022-09-23T08:15:55.238Z,100.00
2022-09-23T08:18:23.416Z,100.00
2022-09-23T08:20:51.267Z,100.00
2022-09-23T08:23:20.540Z,100.00
2022-09-23T08:25:48.391Z,100.00
2022-09-23T08:28:16.714Z,100.00
2022-09-23T08:30:44.638Z,100.00
2022-09-23T08:33:13.828Z,100.00
2022-09-23T08:35:41.907Z,100.00
2022-09-23T08:38:09.984Z,100.00
2022-09-23T08:40:38.209Z,100.00
2022-09-23T08:43:06.991Z,100.00
2022-09-23T08:45:35.085Z,100.00
2022-09-23T08:48:09.599Z,100.00
2022-09-23T08:50:42.529Z,100.00
2022-09-23T08:53:14.436Z,100.00
2022-09-23T08:55:43.361Z,100.00
2022-09-23T08:58:26.026Z,100.00
2022-09-23T09:01:05.584Z,100.00
2022-09-23T09:03:35.443Z,100.00
2022-09-23T09:06:04.841Z,100.00
2022-09-23T09:08:34.250Z,100.00
2022-09-23T09:11:02.331Z,100.00
2022-09-23T09:13:31.618Z,100.00
2022-09-23T09:16:11.404Z,100.00
2022-09-23T09:18:40.733Z,100.00
2022-09-23T09:21:12.770Z,100.00
2022-09-23T09:23:41.691Z,100.00
2022-09-23T09:26:10.990Z,100.00
2022-09-23T09:28:39.654Z,100.00
2022-09-23T09:31:12.440Z,100.00
2022-09-23T09:33:42.547Z,100.00
2022-09-23T09:36:16.255Z,100.00
2022-09-23T09:38:44.101Z,100.00
2022-09-23T09:41:13.743Z,100.00
2022-09-23T09:43:44.191Z,100.00
2022-09-23T09:46:17.245Z,100.00
2022-09-23T09:48:50.435Z,100.00
2022-09-23T09:51:21.301Z,100.00
2022-09-23T09:53:50.053Z,100.00
2022-09-23T09:56:18.020Z,100.00
2022-09-23T09:58:46.817Z,100.00
2022-09-23T10:01:21.542Z,100.00
2022-09-23T10:03:49.337Z,100.00
2022-09-23T10:06:18.381Z,100.00
2022-09-23T10:09:04.571Z,100.00
2022-09-23T10:11:32.420Z,100.00
2022-09-23T10:14:07.454Z,100.00
2022-09-23T10:16:35.351Z,100.00
2022-09-23T10:19:03.381Z,100.00
2022-09-23T10:21:34.694Z,100.00
2022-09-23T10:24:04.932Z,100.00
2022-09-23T10:26:33.390Z,100.00
2022-09-23T10:29:02.384Z,100.00
2022-09-23T10:31:30.432Z,100.00
2022-09-23T10:33:59.787Z,100.00
2022-09-23T10:36:27.988Z,100.00
2022-09-23T10:39:16.723Z,100.00
2022-09-23T10:42:05.195Z,100.00
2022-09-23T10:44:52.716Z,100.00
2022-09-23T10:47:22.241Z,100.00
2022-09-23T10:49:53.322Z,100.00
2022-09-23T10:52:25.251Z,100.00
2022-09-23T10:54:55.481Z,100.00
2022-09-23T10:57:41.811Z,100.00
2022-09-23T11:00:14.654Z,100.00
2022-09-23T11:02:46.500Z,100.00
2022-09-23T11:05:20.570Z,100.00
2022-09-23T11:07:50.106Z,100.00
2022-09-23T11:10:44.862Z,100.00
2022-09-23T11:13:15.412Z,100.00
2022-09-23T11:15:46.380Z,100.00
2022-09-23T11:18:18.783Z,100.00
2022-09-23T11:20:49.498Z,100.00
2022-09-23T11:23:24.554Z,100.00
2022-09-23T11:25:53.824Z,100.00
2022-09-23T11:28:31.641Z,100.00
2022-09-23T11:31:01.941Z,100.00
2022-09-23T11:33:32.603Z,100.00
2022-09-23T11:36:01.157Z,100.00
2022-09-23T11:38:29.481Z,100.00
2022-09-23T11:40:57.808Z,100.00
2022-09-23T11:43:25.896Z,100.00
2022-09-23T11:45:58.684Z,100.00
2022-09-23T11:48:27.920Z,100.00
2022-09-23T11:50:57.922Z,100.00
2022-09-23T11:53:28.561Z,100.00
2022-09-23T11:55:58.433Z,100.00
2022-09-23T11:58:27.580Z,100.00
2022-09-23T12:01:01.081Z,100.00
2022-09-23T12:03:43.403Z,100.00
2022-09-23T12:06:13.811Z,100.00
2022-09-23T12:08:41.615Z,100.00
2022-09-23T12:11:09.813Z,100.00
2022-09-23T12:13:40.781Z,100.00
2022-09-23T12:16:15.011Z,100.00
2022-09-23T12:18:44.618Z,100.00
2022-09-23T12:21:38.792Z,100.00
2022-09-23T12:24:19.262Z,100.00
2022-09-23T12:26:47.269Z,100.00
2022-09-23T12:29:15.152Z,100.00
2022-09-23T12:31:46.782Z,100.00
2022-09-23T12:34:21.234Z,100.00
2022-09-23T12:36:49.072Z,100.00
2022-09-23T12:39:17.645Z,100.00
2022-09-23T12:41:46.435Z,100.00
2022-09-23T12:44:15.118Z,100.00
2022-09-23T12:46:44.274Z,100.00
2022-09-23T12:49:23.519Z,100.00
2022-09-23T12:52:06.359Z,100.00
2022-09-23T12:54:34.204Z,100.00
2022-09-23T12:57:02.523Z,100.00
2022-09-23T12:59:31.217Z,100.00
2022-09-23T13:02:06.693Z,100.00
2022-09-23T13:04:53.104Z,100.00
2022-09-23T13:07:23.891Z,100.00
2022-09-23T13:09:52.091Z,100.00
2022-09-23T13:12:21.012Z,100.00
2022-09-23T13:14:49.707Z,100.00
2022-09-23T13:17:30.743Z,100.00
2022-09-23T13:19:59.535Z,100.00
2022-09-23T13:22:41.538Z,100.00
2022-09-23T13:25:13.232Z,100.00
2022-09-23T13:27:40.942Z,100.00
2022-09-23T13:30:23.667Z,100.00
2022-09-23T13:33:02.435Z,100.00
2022-09-23T13:35:31.823Z,100.00
2022-09-23T13:37:59.803Z,100.00
2022-09-23T13:40:28.297Z,100.00
2022-09-23T13:42:58.623Z,100.00
2022-09-23T13:45:27.079Z,100.00
2022-09-23T13:47:57.279Z,100.00
2022-09-23T13:50:25.107Z,100.00
2022-09-23T13:52:53.318Z,100.00
2022-09-23T13:55:27.998Z,100.00
2022-09-23T13:57:59.921Z,100.00
2022-09-23T14:00:28.238Z,100.00
2022-09-23T14:02:57.644Z,100.00
2022-09-23T14:05:26.317Z,100.00
2022-09-23T14:07:54.290Z,100.00
2022-09-23T14:10:24.647Z,100.00
2022-09-23T14:12:54.173Z,100.00
2022-09-23T14:15:22.499Z,100.00
2022-09-23T14:17:51.406Z,100.00
2022-09-23T14:20:21.176Z,100.00
2022-09-23T14:22:49.133Z,100.00
2022-09-23T14:25:18.174Z,100.00
2022-09-23T14:27:46.972Z,100.00
2022-09-23T14:30:16.261Z,100.00
2022-09-23T14:32:44.459Z,100.00
2022-09-23T14:35:21.784Z,100.00
2022-09-23T14:38:07.261Z,100.00
2022-09-23T14:40:36.093Z,100.00
2022-09-23T14:43:04.999Z,100.00
2022-09-23T14:45:33.041Z,100.00
2022-09-23T14:48:01.289Z,100.00
2022-09-23T14:50:47.595Z,100.00
2022-09-23T14:53:34.269Z,100.00
2022-09-23T14:56:15.912Z,100.00
2022-09-23T14:58:50.972Z,100.00
2022-09-23T15:01:26.816Z,100.00
2022-09-23T15:03:54.747Z,100.00
2022-09-23T15:06:24.200Z,100.00
2022-09-23T15:08:52.043Z,100.00
2022-09-23T15:11:20.513Z,100.00
2022-09-23T15:13:49.543Z,100.00
2022-09-23T15:16:17.959Z,100.00
2022-09-23T15:18:46.170Z,100.00
2022-09-23T15:21:14.636Z,100.00
2022-09-23T15:23:46.534Z,100.00
2022-09-23T15:26:15.448Z,100.00
2022-09-23T15:28:43.650Z,100.00
2022-09-23T15:31:12.500Z,100.00
2022-09-23T15:33:40.417Z,100.00
2022-09-23T15:36:11.501Z,100.00
2022-09-23T15:38:43.052Z,100.00
2022-09-23T15:41:13.792Z,100.00
2022-09-23T15:43:41.896Z,100.00
2022-09-23T15:46:10.121Z,100.00
2022-09-23T15:48:38.751Z,100.00
2022-09-23T15:51:08.259Z,100.00
2022-09-23T15:53:36.591Z,100.00
2022-09-23T15:56:04.567Z,100.00
2022-09-23T15:58:33.833Z,100.00
2022-09-23T16:01:01.720Z,100.00
2022-09-23T16:03:29.639Z,100.00
2022-09-23T16:05:58.234Z,100.00
2022-09-23T16:08:26.037Z,100.00
2022-09-23T16:10:55.116Z,100.00
2022-09-23T16:13:23.152Z,100.00
2022-09-23T16:15:52.438Z,100.00
2022-09-23T16:18:20.394Z,100.00
2022-09-23T16:20:49.560Z,100.00
2022-09-23T16:23:19.677Z,100.00
2022-09-23T16:25:47.642Z,100.00
2022-09-23T16:28:15.484Z,100.00
2022-09-23T16:30:43.442Z,100.00
2022-09-23T16:33:12.605Z,100.00
2022-09-23T16:35:40.447Z,100.00
2022-09-23T16:38:08.285Z,100.00
2022-09-23T16:40:36.228Z,100.00
2022-09-23T16:43:05.528Z,100.00
2022-09-23T16:45:33.458Z,100.00
2022-09-23T16:48:01.338Z,100.00
2022-09-23T16:50:32.191Z,100.00
2022-09-23T16:53:00.012Z,100.00
2022-09-23T16:55:27.869Z,100.00
2022-09-23T16:57:55.932Z,100.00
2022-09-23T17:00:41.714Z,100.00
2022-09-23T17:03:28.702Z,100.00
2022-09-23T17:05:57.979Z,100.00
2022-09-23T17:08:25.949Z,100.00
2022-09-23T17:11:20.234Z,100.00
2022-09-23T17:13:48.385Z,100.00
2022-09-23T17:16:22.978Z,100.00
2022-09-23T17:18:51.394Z,100.00
2022-09-23T17:21:21.308Z,100.00
2022-09-23T17:23:49.229Z,100.00
2022-09-23T17:26:17.313Z,100.00
2022-09-23T17:28:45.750Z,100.00
2022-09-23T17:31:13.872Z,100.00
2022-09-23T17:33:42.775Z,100.00
2022-09-23T17:36:11.211Z,100.00
2022-09-23T17:38:40.883Z,100.00
2022-09-23T17:41:09.292Z,100.00
2022-09-23T17:43:38.573Z,100.00
2022-09-23T17:46:06.963Z,100.00
2022-09-23T17:48:35.557Z,100.00
2022-09-23T17:51:03.760Z,100.00
2022-09-23T17:53:32.327Z,100.00
2022-09-23T17:56:03.522Z,100.00
2022-09-23T17:58:31.611Z,100.00
2022-09-23T18:00:59.840Z,100.00
2022-09-23T18:04:10.364Z,100.00
2022-09-23T18:06:38.452Z,100.00
2022-09-23T18:09:07.516Z,100.00
2022-09-23T18:11:37.138Z,100.00
2022-09-23T18:14:05.344Z,100.00
2022-09-23T18:16:35.407Z,100.00
2022-09-23T18:19:03.362Z,100.00
2022-09-23T18:29:32.820Z,100.00
2022-09-23T18:32:01.321Z,100.00
2022-09-23T18:34:29.594Z,100.00
2022-09-23T18:36:57.541Z,100.00
2022-09-23T18:39:25.390Z,100.00
2022-09-23T18:41:53.234Z,100.00
2022-09-23T18:44:21.310Z,100.00
2022-09-23T18:46:50.588Z,100.00
2022-09-23T18:49:35.947Z,100.00
2022-09-23T18:52:03.921Z,100.00
2022-09-23T18:54:31.875Z,100.00
2022-09-23T18:57:00.316Z,100.00
2022-09-23T18:59:29.128Z,100.00
2022-09-23T19:01:58.809Z,100.00
2022-09-23T19:04:27.440Z,100.00
2022-09-23T19:06:56.777Z,100.00
2022-09-23T19:09:25.162Z,100.00
2022-09-23T19:11:53.845Z,100.00
2022-09-23T19:14:29.023Z,100.00
2022-09-23T19:17:00.451Z,100.00
2022-09-23T19:19:29.002Z,100.00
2022-09-23T19:21:57.085Z,100.00
2022-09-23T19:24:25.041Z,100.00
2022-09-23T19:27:00.580Z,100.00
2022-09-23T19:29:32.127Z,100.00
2022-09-23T19:32:08.002Z,100.00
2022-09-23T19:34:37.835Z,100.00
2022-09-23T19:37:17.102Z,100.00
2022-09-23T19:39:46.183Z,100.00
2022-09-23T19:42:13.927Z,100.00
2022-09-23T19:44:41.889Z,100.00
2022-09-23T19:47:15.826Z,100.00
2022-09-23T19:49:43.866Z,100.00
2022-09-23T19:52:11.629Z,100.00
2022-09-23T19:54:39.319Z,100.00
2022-09-23T19:57:06.821Z,100.00
2022-09-23T19:59:34.309Z,100.00
2022-09-23T20:02:02.090Z,100.00
2022-09-23T20:04:31.451Z,100.00
2022-09-23T20:06:59.026Z,100.00
2022-09-23T20:10:30.860Z,56.13
2022-09-23T20:12:59.419Z,56.29
2022-09-23T20:15:27.637Z,56.55
2022-09-23T20:17:55.304Z,56.45
2022-09-23T20:20:22.825Z,56.51
2022-09-23T20:22:52.455Z,56.58
2022-09-23T20:25:20.132Z,56.52
2022-09-23T20:27:52.130Z,56.44
2022-09-23T20:30:19.999Z,56.49
2022-09-23T20:32:49.940Z,56.64
2022-09-23T20:35:17.454Z,56.41
2022-09-23T20:37:45.122Z,56.60
2022-09-23T20:40:12.711Z,56.54
2022-09-23T20:42:40.304Z,56.65
2022-09-23T20:45:09.969Z,56.54
2022-09-23T20:47:37.731Z,56.50
2022-09-23T20:50:05.670Z,56.67
2022-09-23T20:52:35.777Z,56.67
2022-09-23T20:55:03.397Z,56.72
2022-09-23T20:57:31.621Z,56.43
2022-09-23T20:59:59.262Z,56.87
2022-09-23T21:02:28.246Z,56.80
2022-09-23T21:04:55.990Z,57.04
2022-09-23T21:07:24.109Z,56.90
2022-09-23T21:09:51.687Z,57.00
2022-09-23T21:12:19.646Z,56.99
2022-09-23T21:14:47.086Z,57.20
2022-09-23T21:17:14.699Z,57.25
2022-09-23T21:19:43.912Z,57.11
2022-09-23T21:22:12.404Z,57.18
2022-09-23T21:25:16.077Z,57.35
2022-09-23T21:27:27.487Z,57.32
2022-09-23T21:29:54.938Z,57.32
2022-09-23T21:32:22.549Z,57.40
2022-09-23T21:34:52.465Z,57.50
2022-09-23T21:37:19.908Z,57.28
2022-09-23T21:40:07.444Z,57.36
2022-09-23T21:42:35.257Z,57.28
2022-09-23T21:45:03.465Z,57.50
2022-09-23T21:47:31.174Z,57.42
2022-09-23T21:50:00.873Z,57.64
2022-09-23T21:52:28.296Z,57.55
2022-09-23T21:54:55.873Z,57.62
2022-09-23T21:57:25.848Z,57.58
2022-09-23T21:59:53.830Z,57.49
2022-09-23T22:02:21.472Z,57.68
2022-09-23T22:04:49.208Z,57.57
2022-09-23T22:07:18.061Z,57.53
2022-09-23T22:09:47.036Z,57.71
2022-09-23T22:12:14.611Z,57.80
2022-09-23T22:14:42.880Z,57.60
2022-09-23T22:17:11.314Z,57.71
2022-09-23T22:19:45.745Z,57.72
2022-09-23T22:22:14.951Z,57.87
2022-09-23T22:24:44.028Z,57.77
2022-09-23T22:27:12.540Z,57.80
2022-09-23T22:29:57.906Z,57.78
2022-09-23T22:32:55.076Z,57.78
2022-09-23T22:35:22.947Z,57.99
2022-09-23T22:37:50.508Z,57.99
2022-09-23T22:40:19.693Z,58.09
2022-09-23T22:42:48.498Z,58.10
2022-09-23T22:45:16.044Z,58.18
2022-09-23T22:47:45.257Z,58.21
2022-09-23T22:50:14.310Z,58.05
2022-09-23T22:52:41.746Z,58.29
2022-09-23T22:55:09.702Z,58.56
2022-09-23T22:57:38.544Z,58.39
2022-09-23T23:00:06.261Z,58.65
2022-09-23T23:46:28.221Z,60.33
2022-09-23T23:48:56.226Z,60.22
2022-09-23T23:51:24.942Z,60.37
2022-09-23T23:53:53.180Z,60.30
2022-09-23T23:56:21.112Z,60.21
2022-09-23T23:58:48.547Z,60.28
